sensor_id;sensor_type;location;lat;lon;timestamp;pressure;altitude;pressure_sealevel;temperature;humidity
49393;BME280;35268;42.642;23.308;2023-01-15T00:00:49;94319.22;;;3.47;72.23
49393;BME280;35268;42.642;23.308;2023-01-15T00:03:15;94324.25;;;3.53;71.68
49393;BME280;35268;42.642;23.308;2023-01-15T00:05:40;94326.66;;;3.55;71.47
49393;BME280;35268;42.642;23.308;2023-01-15T00:08:06;94325.88;;;3.54;71.74
49393;BME280;35268;42.642;23.308;2023-01-15T00:10:31;94321.13;;;3.56;71.75
49393;BME280;35268;42.642;23.308;2023-01-15T00:12:57;94317.44;;;3.57;71.81
49393;BME280;35268;42.642;23.308;2023-01-15T00:15:22;94320.84;;;3.58;71.48
49393;BME280;35268;42.642;23.308;2023-01-15T00:17:48;94320.59;;;3.54;71.44
49393;BME280;35268;42.642;23.308;2023-01-15T00:20:13;94313.19;;;3.51;71.48
49393;BME280;35268;42.642;23.308;2023-01-15T00:22:38;94320.84;;;3.53;71.63
49393;BME280;35268;42.642;23.308;2023-01-15T00:25:05;94316.34;;;3.53;71.74
49393;BME280;35268;42.642;23.308;2023-01-15T00:27:49;94323.19;;;3.49;71.68
49393;BME280;35268;42.642;23.308;2023-01-15T00:30:15;94331.34;;;3.48;71.88
49393;BME280;35268;42.642;23.308;2023-01-15T00:32:42;94319.72;;;3.44;72.14
49393;BME280;35268;42.642;23.308;2023-01-15T00:35:13;94322.84;;;3.35;72.56
49393;BME280;35268;42.642;23.308;2023-01-15T00:37:39;94326.56;;;3.34;72.42
49393;BME280;35268;42.642;23.308;2023-01-15T00:40:05;94326.81;;;3.33;72.41
49393;BME280;35268;42.642;23.308;2023-01-15T00:42:30;94324.94;;;3.33;72.41
49393;BME280;35268;42.642;23.308;2023-01-15T00:44:56;94321.72;;;3.21;72.69
49393;BME280;35268;42.642;23.308;2023-01-15T00:47:21;94320.72;;;3.27;72.83
49393;BME280;35268;42.642;23.308;2023-01-15T00:49:47;94318.31;;;3.26;72.66
49393;BME280;35268;42.642;23.308;2023-01-15T00:52:14;94319.63;;;3.23;72.79
49393;BME280;35268;42.642;23.308;2023-01-15T00:54:40;94310.63;;;3.14;73.18
49393;BME280;35268;42.642;23.308;2023-01-15T00:57:05;94312.16;;;3.05;73.68
49393;BME280;35268;42.642;23.308;2023-01-15T00:59:31;94319.56;;;3.08;73.52
49393;BME280;35268;42.642;23.308;2023-01-15T01:01:56;94311.38;;;3.09;73.51
49393;BME280;35268;42.642;23.308;2023-01-15T01:04:21;94315.56;;;3.05;73.79
49393;BME280;35268;42.642;23.308;2023-01-15T01:06:47;94317.94;;;3.01;73.78
49393;BME280;35268;42.642;23.308;2023-01-15T01:09:14;94317.94;;;3.01;73.92
49393;BME280;35268;42.642;23.308;2023-01-15T01:11:40;94318.19;;;3.00;74.09
49393;BME280;35268;42.642;23.308;2023-01-15T01:14:06;94323.16;;;2.96;74.46
49393;BME280;35268;42.642;23.308;2023-01-15T01:16:34;94309.47;;;2.94;74.53
49393;BME280;35268;42.642;23.308;2023-01-15T01:19:05;94312.13;;;2.99;74.43
49393;BME280;35268;42.642;23.308;2023-01-15T01:21:31;94314.53;;;3.06;74.18
49393;BME280;35268;42.642;23.308;2023-01-15T01:23:58;94315.25;;;2.96;74.29
49393;BME280;35268;42.642;23.308;2023-01-15T01:26:24;94311.56;;;2.92;74.49
49393;BME280;35268;42.642;23.308;2023-01-15T01:28:51;94308.44;;;3.00;74.43
49393;BME280;35268;42.642;23.308;2023-01-15T01:31:17;94307.44;;;3.07;74.49
49393;BME280;35268;42.642;23.308;2023-01-15T01:33:43;94296.41;;;3.15;73.97
49393;BME280;35268;42.642;23.308;2023-01-15T01:36:08;94304.38;;;3.25;73.50
49393;BME280;35268;42.642;23.308;2023-01-15T01:38:34;94286.75;;;3.31;73.41
49393;BME280;35268;42.642;23.308;2023-01-15T01:40:59;94297.56;;;3.39;73.00
49393;BME280;35268;42.642;23.308;2023-01-15T01:43:27;94295.50;;;3.47;72.71
49393;BME280;35268;42.642;23.308;2023-01-15T01:45:53;94295.53;;;3.52;72.42
49393;BME280;35268;42.642;23.308;2023-01-15T01:48:22;94301.31;;;3.54;72.27
49393;BME280;35268;42.642;23.308;2023-01-15T01:50:49;94299.75;;;3.58;71.96
49393;BME280;35268;42.642;23.308;2023-01-15T01:53:19;94301.06;;;3.55;71.80
49393;BME280;35268;42.642;23.308;2023-01-15T01:55:45;94303.97;;;3.54;71.80
49393;BME280;35268;42.642;23.308;2023-01-15T01:58:12;94294.72;;;3.51;71.95
49393;BME280;35268;42.642;23.308;2023-01-15T02:00:41;94299.47;;;3.44;72.05
49393;BME280;35268;42.642;23.308;2023-01-15T02:03:09;94293.34;;;3.33;72.38
49393;BME280;35268;42.642;23.308;2023-01-15T02:05:38;94298.09;;;3.36;72.82
49393;BME280;35268;42.642;23.308;2023-01-15T02:08:05;94292.59;;;3.38;72.60
49393;BME280;35268;42.642;23.308;2023-01-15T02:10:31;94287.03;;;3.34;72.77
49393;BME280;35268;42.642;23.308;2023-01-15T02:13:04;94283.88;;;3.32;72.98
49393;BME280;35268;42.642;23.308;2023-01-15T02:15:34;94277.28;;;3.30;73.17
49393;BME280;35268;42.642;23.308;2023-01-15T02:18:35;94293.88;;;3.30;73.07
49393;BME280;35268;42.642;23.308;2023-01-15T02:27:01;94285.47;;;3.38;72.82
49393;BME280;35268;42.642;23.308;2023-01-15T02:32:32;94290.19;;;3.36;72.50
49393;BME280;35268;42.642;23.308;2023-01-15T02:35:12;94282.53;;;3.35;72.06
49393;BME280;35268;42.642;23.308;2023-01-15T02:37:44;94282.28;;;3.36;72.39
49393;BME280;35268;42.642;23.308;2023-01-15T02:40:12;94275.97;;;3.32;73.13
49393;BME280;35268;42.642;23.308;2023-01-15T02:42:39;94279.13;;;3.34;72.84
49393;BME280;35268;42.642;23.308;2023-01-15T02:45:08;94264.38;;;3.38;72.86
49393;BME280;35268;42.642;23.308;2023-01-15T02:47:37;94276.28;;;3.46;72.55
49393;BME280;35268;42.642;23.308;2023-01-15T02:50:06;94272.88;;;3.51;72.54
49393;BME280;35268;42.642;23.308;2023-01-15T02:52:36;94270.75;;;3.53;72.36
49393;BME280;35268;42.642;23.308;2023-01-15T02:55:07;94254.44;;;3.66;71.63
49393;BME280;35268;42.642;23.308;2023-01-15T02:57:37;94255.50;;;3.70;71.50
49393;BME280;35268;42.642;23.308;2023-01-15T03:00:06;94265.00;;;3.66;71.61
49393;BME280;35268;42.642;23.308;2023-01-15T03:02:46;94268.41;;;3.61;72.21
49393;BME280;35268;42.642;23.308;2023-01-15T03:05:22;94270.78;;;3.63;72.19
49393;BME280;35268;42.642;23.308;2023-01-15T03:07:55;94271.06;;;3.67;72.10
49393;BME280;35268;42.642;23.308;2023-01-15T03:10:31;94271.34;;;3.70;72.09
49393;BME280;35268;42.642;23.308;2023-01-15T03:13:00;94268.72;;;3.75;72.16
49393;BME280;35268;42.642;23.308;2023-01-15T03:15:37;94276.13;;;3.84;72.05
49393;BME280;35268;42.642;23.308;2023-01-15T03:18:23;94277.97;;;3.88;71.80
49393;BME280;35268;42.642;23.308;2023-01-15T03:20:56;94283.81;;;3.95;71.25
49393;BME280;35268;42.642;23.308;2023-01-15T03:23:23;94278.53;;;4.00;71.26
49393;BME280;35268;42.642;23.308;2023-01-15T03:25:51;94278.28;;;4.07;71.06
49393;BME280;35268;42.642;23.308;2023-01-15T03:28:21;94269.84;;;4.10;71.13
49393;BME280;35268;42.642;23.308;2023-01-15T03:30:48;94275.91;;;4.16;71.04
49393;BME280;35268;42.642;23.308;2023-01-15T03:33:14;94275.38;;;4.19;70.86
49393;BME280;35268;42.642;23.308;2023-01-15T03:35:49;94283.56;;;4.22;70.58
49393;BME280;35268;42.642;23.308;2023-01-15T03:38:18;94284.63;;;4.27;70.40
49393;BME280;35268;42.642;23.308;2023-01-15T03:40:55;94280.13;;;4.27;70.39
49393;BME280;35268;42.642;23.308;2023-01-15T03:59:56;94277.78;;;4.41;69.48
49393;BME280;35268;42.642;23.308;2023-01-15T04:02:23;94287.28;;;4.42;69.37
49393;BME280;35268;42.642;23.308;2023-01-15T04:04:50;94281.47;;;4.45;69.39
49393;BME280;35268;42.642;23.308;2023-01-15T04:07:16;94289.91;;;4.47;69.20
49393;BME280;35268;42.642;23.308;2023-01-15T04:09:42;94287.03;;;4.49;69.02
49393;BME280;35268;42.642;23.308;2023-01-15T04:12:08;94282.53;;;4.49;68.47
49393;BME280;35268;42.642;23.308;2023-01-15T04:14:34;94271.97;;;4.49;68.86
49393;BME280;35268;42.642;23.308;2023-01-15T04:16:59;94273.28;;;4.52;68.69
49393;BME280;35268;42.642;23.308;2023-01-15T04:19:25;94276.75;;;4.52;68.66
49393;BME280;35268;42.642;23.308;2023-01-15T04:21:50;94275.91;;;4.52;68.54
49393;BME280;35268;42.642;23.308;2023-01-15T04:24:16;94286.75;;;4.55;68.47
49393;BME280;35268;42.642;23.308;2023-01-15T04:26:41;94278.31;;;4.58;68.58
49393;BME280;35268;42.642;23.308;2023-01-15T04:29:07;94280.16;;;4.58;68.42
49393;BME280;35268;42.642;23.308;2023-01-15T04:31:32;94281.75;;;4.59;68.06
49393;BME280;35268;42.642;23.308;2023-01-15T04:34:00;94285.44;;;4.58;68.22
49393;BME280;35268;42.642;23.308;2023-01-15T04:36:25;94292.03;;;4.55;68.22
49393;BME280;35268;42.642;23.308;2023-01-15T04:38:51;94292.03;;;4.55;68.26
49393;BME280;35268;42.642;23.308;2023-01-15T04:41:16;94290.72;;;4.53;68.21
49393;BME280;35268;42.642;23.308;2023-01-15T04:44:00;94291.53;;;4.48;68.32
49393;BME280;35268;42.642;23.308;2023-01-15T04:46:37;94284.91;;;4.46;68.34
49393;BME280;35268;42.642;23.308;2023-01-15T04:49:04;94294.13;;;4.43;68.41
49393;BME280;35268;42.642;23.308;2023-01-15T04:51:30;94292.03;;;4.40;68.33
49393;BME280;35268;42.642;23.308;2023-01-15T04:53:56;94288.34;;;4.36;68.53
49393;BME280;35268;42.642;23.308;2023-01-15T04:56:22;94289.66;;;4.33;68.38
49393;BME280;35268;42.642;23.308;2023-01-15T04:58:47;94289.41;;;4.30;68.19
49393;BME280;35268;42.642;23.308;2023-01-15T05:01:14;94287.81;;;4.29;68.11
49393;BME280;35268;42.642;23.308;2023-01-15T05:03:40;94291.22;;;4.24;68.24
49393;BME280;35268;42.642;23.308;2023-01-15T05:06:06;94296.22;;;4.20;68.02
49393;BME280;35268;42.642;23.308;2023-01-15T05:08:32;94291.50;;;4.17;68.14
49393;BME280;35268;42.642;23.308;2023-01-15T05:11:05;94288.84;;;4.12;68.37
49393;BME280;35268;42.642;23.308;2023-01-15T05:13:31;94283.03;;;4.10;68.21
49393;BME280;35268;42.642;23.308;2023-01-15T05:16:14;94294.38;;;4.06;68.24
49393;BME280;35268;42.642;23.308;2023-01-15T05:18:41;94282.22;;;3.99;68.29
49393;BME280;35268;42.642;23.308;2023-01-15T05:21:13;94290.66;;;3.91;68.53
49393;BME280;35268;42.642;23.308;2023-01-15T05:23:39;94286.13;;;3.87;68.40
49393;BME280;35268;42.642;23.308;2023-01-15T05:26:04;94289.31;;;3.84;68.49
49393;BME280;35268;42.642;23.308;2023-01-15T05:28:30;94285.59;;;3.79;68.63
49393;BME280;35268;42.642;23.308;2023-01-15T05:30:55;94289.81;;;3.75;68.59
49393;BME280;35268;42.642;23.308;2023-01-15T05:33:21;94290.59;;;3.71;68.63
49393;BME280;35268;42.642;23.308;2023-01-15T05:35:46;94289.53;;;3.67;68.30
49393;BME280;35268;42.642;23.308;2023-01-15T05:38:12;94286.63;;;3.63;68.37
49393;BME280;35268;42.642;23.308;2023-01-15T05:40:37;94293.94;;;3.56;68.63
49393;BME280;35268;42.642;23.308;2023-01-15T05:43:03;94286.56;;;3.53;68.37
49393;BME280;35268;42.642;23.308;2023-01-15T05:45:28;94294.44;;;3.48;68.27
49393;BME280;35268;42.642;23.308;2023-01-15T05:47:53;94284.94;;;3.41;68.63
49393;BME280;35268;42.642;23.308;2023-01-15T05:50:19;94289.13;;;3.37;68.70
49393;BME280;35268;42.642;23.308;2023-01-15T05:52:45;94292.31;;;3.34;68.22
49393;BME280;35268;42.642;23.308;2023-01-15T05:55:10;94298.59;;;3.33;68.27
49393;BME280;35268;42.642;23.308;2023-01-15T05:57:36;94288.06;;;3.28;68.16
49393;BME280;35268;42.642;23.308;2023-01-15T06:00:03;94296.16;;;3.21;68.59
49393;BME280;35268;42.642;23.308;2023-01-15T06:02:28;94312.75;;;3.17;68.76
49393;BME280;35268;42.642;23.308;2023-01-15T06:04:54;94302.19;;;3.12;69.16
49393;BME280;35268;42.642;23.308;2023-01-15T06:07:19;94301.13;;;3.13;69.33
49393;BME280;35268;42.642;23.308;2023-01-15T06:09:45;94304.84;;;3.17;69.33
49393;BME280;35268;42.642;23.308;2023-01-15T06:12:11;94301.69;;;3.15;69.58
49393;BME280;35268;42.642;23.308;2023-01-15T06:14:36;94305.38;;;3.14;69.71
49393;BME280;35268;42.642;23.308;2023-01-15T06:17:01;94308.00;;;3.14;69.95
49393;BME280;35268;42.642;23.308;2023-01-15T06:19:27;94302.75;;;3.14;69.99
49393;BME280;35268;42.642;23.308;2023-01-15T06:21:52;94292.47;;;3.17;69.96
49393;BME280;35268;42.642;23.308;2023-01-15T06:24:18;94301.19;;;3.18;70.09
49393;BME280;35268;42.642;23.308;2023-01-15T06:26:45;94294.84;;;3.19;70.01
49393;BME280;35268;42.642;23.308;2023-01-15T06:29:10;94292.75;;;3.21;70.28
49393;BME280;35268;42.642;23.308;2023-01-15T06:31:35;94296.97;;;3.22;70.29
49393;BME280;35268;42.642;23.308;2023-01-15T06:34:01;94297.53;;;3.24;70.57
49393;BME280;35268;42.642;23.308;2023-01-15T06:36:27;94292.25;;;3.29;70.56
49393;BME280;35268;42.642;23.308;2023-01-15T06:38:53;94296.25;;;3.32;70.53
49393;BME280;35268;42.642;23.308;2023-01-15T06:41:23;94297.56;;;3.34;70.57
49393;BME280;35268;42.642;23.308;2023-01-15T06:44:13;94300.50;;;3.38;70.51
49393;BME280;35268;42.642;23.308;2023-01-15T06:46:57;94295.47;;;3.41;70.63
49393;BME280;35268;42.642;23.308;2023-01-15T06:49:41;94293.13;;;3.45;70.55
49393;BME280;35268;42.642;23.308;2023-01-15T06:52:07;94298.16;;;3.47;70.84
49393;BME280;35268;42.642;23.308;2023-01-15T06:54:33;94297.13;;;3.53;70.71
49393;BME280;35268;42.642;23.308;2023-01-15T06:56:58;94303.97;;;3.54;70.69
49393;BME280;35268;42.642;23.308;2023-01-15T06:59:24;94301.63;;;3.57;70.88
49393;BME280;35268;42.642;23.308;2023-01-15T07:01:49;94304.53;;;3.61;70.74
49393;BME280;35268;42.642;23.308;2023-01-15T07:04:15;94301.13;;;3.66;70.94
49393;BME280;35268;42.642;23.308;2023-01-15T07:06:40;94287.44;;;3.69;70.69
49393;BME280;35268;42.642;23.308;2023-01-15T07:09:06;94292.69;;;3.74;70.11
49393;BME280;35268;42.642;23.308;2023-01-15T07:11:32;94295.91;;;3.81;70.08
49393;BME280;35268;42.642;23.308;2023-01-15T07:13:57;94297.22;;;3.84;70.18
49393;BME280;35268;42.642;23.308;2023-01-15T07:16:35;94293.53;;;3.90;70.05
49393;BME280;35268;42.642;23.308;2023-01-15T07:19:02;94302.00;;;3.97;70.19
49393;BME280;35268;42.642;23.308;2023-01-15T07:21:27;94305.97;;;3.99;70.12
49393;BME280;35268;42.642;23.308;2023-01-15T07:23:54;94299.38;;;4.02;70.43
49393;BME280;35268;42.642;23.308;2023-01-15T07:26:22;94296.22;;;4.10;69.95
49393;BME280;35268;42.642;23.308;2023-01-15T07:28:48;94305.47;;;4.23;69.29
49393;BME280;35268;42.642;23.308;2023-01-15T07:31:13;94311.03;;;4.27;68.97
49393;BME280;35268;42.642;23.308;2023-01-15T07:33:38;94306.81;;;4.31;69.17
49393;BME280;35268;42.642;23.308;2023-01-15T07:36:04;94312.09;;;4.36;68.86
49393;BME280;35268;42.642;23.308;2023-01-15T07:38:30;94315.25;;;4.43;68.21
49393;BME280;35268;42.642;23.308;2023-01-15T07:40:56;94315.53;;;4.47;67.30
49393;BME280;35268;42.642;23.308;2023-01-15T07:43:48;94321.59;;;4.42;66.31
49393;BME280;35268;42.642;23.308;2023-01-15T07:46:32;94315.81;;;4.40;66.90
49393;BME280;35268;42.642;23.308;2023-01-15T07:49:16;94309.44;;;4.41;66.49
49393;BME280;35268;42.642;23.308;2023-01-15T07:52:00;94313.94;;;4.40;66.17
49393;BME280;35268;42.642;23.308;2023-01-15T07:54:26;94303.38;;;4.40;65.67
49393;BME280;35268;42.642;23.308;2023-01-15T07:56:53;94304.69;;;4.33;65.73
49393;BME280;35268;42.642;23.308;2023-01-15T07:59:19;94303.09;;;4.27;66.33
49393;BME280;35268;42.642;23.308;2023-01-15T08:01:45;94307.34;;;4.28;66.48
49393;BME280;35268;42.642;23.308;2023-01-15T08:04:10;94303.63;;;4.29;66.53
49393;BME280;35268;42.642;23.308;2023-01-15T08:06:36;94306.28;;;4.34;66.27
49393;BME280;35268;42.642;23.308;2023-01-15T08:09:02;94303.63;;;4.39;66.13
49393;BME280;35268;42.642;23.308;2023-01-15T08:11:28;94301.25;;;4.48;65.58
49393;BME280;35268;42.642;23.308;2023-01-15T08:14:12;94294.16;;;4.53;64.86
49393;BME280;35268;42.642;23.308;2023-01-15T08:16:56;94303.91;;;4.53;65.21
49393;BME280;35268;42.642;23.308;2023-01-15T08:19:21;94309.97;;;4.53;63.60
49393;BME280;35268;42.642;23.308;2023-01-15T08:21:49;94310.78;;;4.49;63.29
49393;BME280;35268;42.642;23.308;2023-01-15T08:24:15;94316.84;;;4.49;63.73
49393;BME280;35268;42.642;23.308;2023-01-15T08:26:40;94319.22;;;4.56;63.63
49393;BME280;35268;42.642;23.308;2023-01-15T08:29:05;94320.03;;;4.61;63.43
49393;BME280;35268;42.642;23.308;2023-01-15T08:31:31;94330.59;;;4.67;63.35
49393;BME280;35268;42.642;23.308;2023-01-15T08:33:57;94318.19;;;4.72;63.02
49393;BME280;35268;42.642;23.308;2023-01-15T08:36:22;94329.25;;;4.69;62.90
49393;BME280;35268;42.642;23.308;2023-01-15T08:38:48;94325.81;;;4.74;62.91
49393;BME280;35268;42.642;23.308;2023-01-15T08:41:15;94325.31;;;4.77;62.43
49393;BME280;35268;42.642;23.308;2023-01-15T08:43:40;94321.59;;;4.83;62.00
49393;BME280;35268;42.642;23.308;2023-01-15T08:46:08;94320.28;;;4.86;62.15
49393;BME280;35268;42.642;23.308;2023-01-15T08:48:33;94321.59;;;4.93;62.30
49393;BME280;35268;42.642;23.308;2023-01-15T08:51:05;94317.09;;;4.99;62.38
49393;BME280;35268;42.642;23.308;2023-01-15T08:53:31;94312.88;;;5.03;62.79
49393;BME280;35268;42.642;23.308;2023-01-15T08:55:57;94315.25;;;5.10;62.75
49393;BME280;35268;42.642;23.308;2023-01-15T08:58:22;94308.63;;;5.17;61.88
49393;BME280;35268;42.642;23.308;2023-01-15T09:00:47;94319.44;;;5.21;61.54
49393;BME280;35268;42.642;23.308;2023-01-15T09:03:13;94312.84;;;5.23;60.55
49393;BME280;35268;42.642;23.308;2023-01-15T09:05:39;94315.19;;;5.30;59.76
49393;BME280;35268;42.642;23.308;2023-01-15T09:08:05;94319.44;;;5.31;60.16
49393;BME280;35268;42.642;23.308;2023-01-15T09:10:32;94315.44;;;5.34;60.33
49393;BME280;35268;42.642;23.308;2023-01-15T09:13:01;94310.44;;;5.32;59.96
49393;BME280;35268;42.642;23.308;2023-01-15T09:15:31;94310.97;;;5.29;60.22
49393;BME280;35268;42.642;23.308;2023-01-15T09:17:57;94315.44;;;5.29;60.37
49393;BME280;35268;42.642;23.308;2023-01-15T09:20:23;94312.53;;;5.30;60.60
49393;BME280;35268;42.642;23.308;2023-01-15T09:22:51;94300.63;;;5.33;60.51
49393;BME280;35268;42.642;23.308;2023-01-15T09:25:17;94305.94;;;5.38;60.32
49393;BME280;35268;42.642;23.308;2023-01-15T09:27:45;94301.41;;;5.43;60.48
49393;BME280;35268;42.642;23.308;2023-01-15T09:30:17;94293.97;;;5.51;60.53
49393;BME280;35268;42.642;23.308;2023-01-15T09:32:43;94291.59;;;5.54;60.57
49393;BME280;35268;42.642;23.308;2023-01-15T09:35:08;94289.94;;;5.63;60.58
49393;BME280;35268;42.642;23.308;2023-01-15T09:37:34;94281.44;;;5.77;60.84
49393;BME280;35268;42.642;23.308;2023-01-15T09:39:59;94280.56;;;5.92;60.91
49393;BME280;35268;42.642;23.308;2023-01-15T09:42:38;94272.53;;;6.12;60.30
49393;BME280;35268;42.642;23.308;2023-01-15T09:50:29;94263.44;;;6.63;58.93
49393;BME280;35268;42.642;23.308;2023-01-15T09:55:41;94249.13;;;6.93;57.27
49393;BME280;35268;42.642;23.308;2023-01-15T09:58:12;94249.28;;;7.02;57.00
49393;BME280;35268;42.642;23.308;2023-01-15T10:00:48;94239.94;;;7.10;56.68
49393;BME280;35268;42.642;23.308;2023-01-15T10:06:21;94225.13;;;7.33;57.02
49393;BME280;35268;42.642;23.308;2023-01-15T10:08:49;94222.06;;;7.44;56.75
49393;BME280;35268;42.642;23.308;2023-01-15T10:13:52;94215.34;;;7.71;55.43
49393;BME280;35268;42.642;23.308;2023-01-15T10:16:25;94209.41;;;7.79;55.38
49393;BME280;35268;42.642;23.308;2023-01-15T10:18:53;94203.97;;;7.90;54.92
49393;BME280;35268;42.642;23.308;2023-01-15T10:27:10;94190.91;;;7.74;54.29
49393;BME280;35268;42.642;23.308;2023-01-15T10:29:47;94196.34;;;7.83;54.65
49393;BME280;35268;42.642;23.308;2023-01-15T10:32:42;94187.19;;;7.94;54.37
49393;BME280;35268;42.642;23.308;2023-01-15T10:38:15;94185.44;;;8.03;53.90
49393;BME280;35268;42.642;23.308;2023-01-15T10:43:49;94176.31;;;8.10;53.80
49393;BME280;35268;42.642;23.308;2023-01-15T10:46:21;94161.19;;;8.10;53.43
49393;BME280;35268;42.642;23.308;2023-01-15T10:48:54;94164.91;;;8.09;53.26
49393;BME280;35268;42.642;23.308;2023-01-15T10:51:39;94162.75;;;8.11;53.02
49393;BME280;35268;42.642;23.308;2023-01-15T10:54:28;94155.06;;;8.10;53.60
49393;BME280;35268;42.642;23.308;2023-01-15T10:57:08;94146.84;;;8.11;53.52
49393;BME280;35268;42.642;23.308;2023-01-15T11:04:48;94137.88;;;8.07;54.04
49393;BME280;35268;42.642;23.308;2023-01-15T11:07:14;94132.06;;;8.05;54.18
49393;BME280;35268;42.642;23.308;2023-01-15T11:09:41;94127.63;;;8.00;54.26
49393;BME280;35268;42.642;23.308;2023-01-15T11:12:25;94124.25;;;7.95;54.38
49393;BME280;35268;42.642;23.308;2023-01-15T11:14:52;94119.13;;;7.84;54.79
49393;BME280;35268;42.642;23.308;2023-01-15T11:17:40;94120.47;;;7.82;54.50
49393;BME280;35268;42.642;23.308;2023-01-15T11:20:41;94117.19;;;7.71;54.62
49393;BME280;35268;42.642;23.308;2023-01-15T11:23:09;94114.66;;;7.61;55.19
49393;BME280;35268;42.642;23.308;2023-01-15T11:25:37;94112.88;;;7.56;55.46
49393;BME280;35268;42.642;23.308;2023-01-15T11:28:06;94109.59;;;7.46;55.56
49393;BME280;35268;42.642;23.308;2023-01-15T11:30:36;94104.28;;;7.46;55.86
49393;BME280;35268;42.642;23.308;2023-01-15T11:33:04;94105.34;;;7.44;56.27
49393;BME280;35268;42.642;23.308;2023-01-15T11:35:32;94097.72;;;7.43;56.37
49393;BME280;35268;42.642;23.308;2023-01-15T11:38:02;94100.38;;;7.43;56.20
49393;BME280;35268;42.642;23.308;2023-01-15T11:40:28;94094.56;;;7.41;56.12
49393;BME280;35268;42.642;23.308;2023-01-15T11:42:54;94088.53;;;7.35;55.99
49393;BME280;35268;42.642;23.308;2023-01-15T11:45:51;94083.00;;;7.32;56.85
49393;BME280;35268;42.642;23.308;2023-01-15T11:48:43;94077.69;;;7.32;57.27
49393;BME280;35268;42.642;23.308;2023-01-15T11:51:29;94088.53;;;7.35;56.94
49393;BME280;35268;42.642;23.308;2023-01-15T11:54:01;94078.94;;;7.39;56.88
49393;BME280;35268;42.642;23.308;2023-01-15T11:56:29;94065.06;;;7.42;57.09
49393;BME280;35268;42.642;23.308;2023-01-15T11:58:57;94070.31;;;7.48;56.79
49393;BME280;35268;42.642;23.308;2023-01-15T12:01:32;94068.94;;;7.50;56.87
49393;BME280;35268;42.642;23.308;2023-01-15T12:04:02;94068.88;;;7.55;56.42
49393;BME280;35268;42.642;23.308;2023-01-15T12:06:29;94068.06;;;7.55;56.31
49393;BME280;35268;42.642;23.308;2023-01-15T12:15:21;94056.66;;;7.73;56.19
49393;BME280;35268;42.642;23.308;2023-01-15T12:22:59;94051.88;;;7.89;55.68
49393;BME280;35268;42.642;23.308;2023-01-15T12:28:04;94045.72;;;8.08;55.67
49393;BME280;35268;42.642;23.308;2023-01-15T12:33:23;94040.88;;;8.29;55.09
49393;BME280;35268;42.642;23.308;2023-01-15T12:36:23;94038.59;;;8.36;54.94
49393;BME280;35268;42.642;23.308;2023-01-15T12:41:19;94023.19;;;8.52;54.52
49393;BME280;35268;42.642;23.308;2023-01-15T12:43:53;94030.88;;;8.53;54.77
49393;BME280;35268;42.642;23.308;2023-01-15T12:46:41;94035.78;;;8.60;54.92
49393;BME280;35268;42.642;23.308;2023-01-15T12:49:35;94032.63;;;8.72;54.60
49393;BME280;35268;42.642;23.308;2023-01-15T12:52:07;94023.97;;;8.80;53.83
49393;BME280;35268;42.642;23.308;2023-01-15T12:54:39;94015.59;;;8.87;53.35
49393;BME280;35268;42.642;23.308;2023-01-15T12:59:53;94012.28;;;9.03;53.24
49393;BME280;35268;42.642;23.308;2023-01-15T13:02:28;94005.28;;;9.08;53.29
49393;BME280;35268;42.642;23.308;2023-01-15T13:05:15;94004.22;;;9.09;52.76
49393;BME280;35268;42.642;23.308;2023-01-15T13:07:48;94002.72;;;9.16;53.22
49393;BME280;35268;42.642;23.308;2023-01-15T13:10:27;94007.44;;;9.19;52.55
49393;BME280;35268;42.642;23.308;2023-01-15T13:13:08;93999.16;;;9.21;52.63
49393;BME280;35268;42.642;23.308;2023-01-15T13:15:48;94008.31;;;9.29;52.45
49393;BME280;35268;42.642;23.308;2023-01-15T13:18:28;94002.22;;;9.28;52.14
49393;BME280;35268;42.642;23.308;2023-01-15T13:20:58;94001.09;;;9.29;52.25
49393;BME280;35268;42.642;23.308;2023-01-15T13:23:48;93994.22;;;9.28;51.80
49393;BME280;35268;42.642;23.308;2023-01-15T13:29:00;93989.56;;;9.34;51.28
49393;BME280;35268;42.642;23.308;2023-01-15T13:34:26;93989.69;;;9.29;51.48
49393;BME280;35268;42.642;23.308;2023-01-15T13:36:57;93981.13;;;9.18;51.19
49393;BME280;35268;42.642;23.308;2023-01-15T13:39:33;93972.66;;;9.16;51.45
49393;BME280;35268;42.642;23.308;2023-01-15T13:42:02;93976.03;;;9.08;51.36
49393;BME280;35268;42.642;23.308;2023-01-15T13:44:50;93976.28;;;8.97;51.85
49393;BME280;35268;42.642;23.308;2023-01-15T13:47:20;93979.63;;;8.89;52.03
49393;BME280;35268;42.642;23.308;2023-01-15T13:49:51;93976.81;;;8.86;52.21
49393;BME280;35268;42.642;23.308;2023-01-15T13:52:28;93977.31;;;8.74;52.35
49393;BME280;35268;42.642;23.308;2023-01-15T13:54:59;93977.53;;;8.63;52.73
49393;BME280;35268;42.642;23.308;2023-01-15T13:57:37;93974.81;;;8.55;52.81
49393;BME280;35268;42.642;23.308;2023-01-15T14:00:27;93975.28;;;8.43;53.33
49393;BME280;35268;42.642;23.308;2023-01-15T14:03:00;93969.66;;;8.31;53.55
49393;BME280;35268;42.642;23.308;2023-01-15T14:05:30;93968.19;;;8.24;53.74
49393;BME280;35268;42.642;23.308;2023-01-15T14:07:56;93967.00;;;8.17;54.34
49393;BME280;35268;42.642;23.308;2023-01-15T14:16:17;93972.19;;;7.94;54.81
49393;BME280;35268;42.642;23.308;2023-01-15T14:21:36;93968.75;;;7.80;55.41
49393;BME280;35268;42.642;23.308;2023-01-15T14:24:35;93971.47;;;7.75;56.02
49393;BME280;35268;42.642;23.308;2023-01-15T14:35:24;93969.50;;;7.34;57.15
49393;BME280;35268;42.642;23.308;2023-01-15T14:37:58;93970.75;;;7.22;57.65
49393;BME280;35268;42.642;23.308;2023-01-15T14:40:31;93964.28;;;7.10;57.60
49393;BME280;35268;42.642;23.308;2023-01-15T14:43:00;93960.22;;;6.98;57.88
49393;BME280;35268;42.642;23.308;2023-01-15T14:50:51;93965.06;;;6.53;59.09
49393;BME280;35268;42.642;23.308;2023-01-15T14:54:00;93961.97;;;6.46;59.46
49393;BME280;35268;42.642;23.308;2023-01-15T14:56:43;93965.81;;;6.35;59.85
49393;BME280;35268;42.642;23.308;2023-01-15T14:59:51;93959.09;;;6.23;60.36
49393;BME280;35268;42.642;23.308;2023-01-15T15:02:19;93959.75;;;6.10;60.55